Time;durP1;ratioP1;P1;durP2;ratioP2;P2;SDS_P1;SDS_P2;PMS_P1;PMS_P2;Temp;Humidity;BMP_temperature;BMP_pressure;BME280_temperature;BME280_humidity;BME280_pressure;Samples;Min_cycle;Max_cycle;Signal;HPM_P1;HPM_P2
2023/01/25 00:00:23;;;;;;;34.60;20.08;;;;;;;;;;4947112;28;20065;-80
2023/01/25 00:02:49;;;;;;;29.15;18.40;;;;;;;;;;4947165;28;20050;-79
2023/01/25 00:05:16;;;;;;;31.23;20.50;;;;;;;;;;4947106;28;20054;-79
2023/01/25 00:07:43;;;;;;;31.08;19.45;;;;;;;;;;4958950;28;20150;-80
2023/01/25 00:10:10;;;;;;;29.92;18.50;;;;;;;;;;4963225;28;20054;-79
2023/01/25 00:12:36;;;;;;;27.15;17.02;;;;;;;;;;4962859;28;20054;-79
2023/01/25 00:15:04;;;;;;;30.95;19.67;;;;;;;;;;4947574;28;20058;-79
2023/01/25 00:17:31;;;;;;;31.55;19.25;;;;;;;;;;4946768;28;20050;-79
2023/01/25 00:19:58;;;;;;;32.65;20.63;;;;;;;;;;4947515;28;20054;-79
2023/01/25 00:22:24;;;;;;;31.05;18.05;;;;;;;;;;4948446;28;20396;-79
2023/01/25 00:24:51;;;;;;;28.73;18.38;;;;;;;;;;4951084;28;20057;-79
2023/01/25 00:27:18;;;;;;;28.00;18.65;;;;;;;;;;4959749;28;20050;-79
2023/01/25 00:29:45;;;;;;;31.73;18.67;;;;;;;;;;4963347;28;20057;-79
2023/01/25 00:32:11;;;;;;;30.67;18.40;;;;;;;;;;4962946;28;20046;-78
2023/01/25 00:34:50;;;;;;;28.90;17.73;;;;;;;;;;4993705;28;20077;-78
2023/01/25 00:37:29;;;;;;;32.25;19.63;;;;;;;;;;4946736;28;20054;-77
2023/01/25 00:39:56;;;;;;;27.27;17.98;;;;;;;;;;4948064;28;20056;-79
2023/01/25 00:42:22;;;;;;;31.13;18.65;;;;;;;;;;4946943;28;20430;-79
2023/01/25 00:44:49;;;;;;;29.50;18.02;;;;;;;;;;4946879;28;20614;-79
2023/01/25 00:47:16;;;;;;;26.70;17.85;;;;;;;;;;4947698;28;20058;-79
2023/01/25 00:49:43;;;;;;;30.48;18.02;;;;;;;;;;4947705;28;20061;-79
2023/01/25 00:52:10;;;;;;;27.20;16.73;;;;;;;;;;4954113;28;20056;-77
2023/01/25 00:54:40;;;;;;;27.23;17.30;;;;;;;;;;4970690;28;20027;-75
2023/01/25 00:57:08;;;;;;;29.25;17.60;;;;;;;;;;4986088;28;20046;-75
2023/01/25 00:59:35;;;;;;;27.05;16.77;;;;;;;;;;4970680;28;20030;-75
2023/01/25 01:02:02;;;;;;;30.00;18.25;;;;;;;;;;4970646;28;20034;-73
2023/01/25 01:04:29;;;;;;;28.15;18.02;;;;;;;;;;4970549;28;20037;-75
2023/01/25 01:06:56;;;;;;;27.98;17.42;;;;;;;;;;4970599;28;20057;-75
2023/01/25 01:09:23;;;;;;;27.00;18.00;;;;;;;;;;4986337;28;20053;-77
2023/01/25 01:11:50;;;;;;;26.77;17.90;;;;;;;;;;4970643;28;20099;-77
2023/01/25 01:14:17;;;;;;;26.33;17.40;;;;;;;;;;4970442;28;20031;-77
2023/01/25 01:16:44;;;;;;;26.95;17.30;;;;;;;;;;4970567;28;20045;-75
2023/01/25 01:19:11;;;;;;;28.25;18.08;;;;;;;;;;4970103;28;20038;-75
2023/01/25 01:21:38;;;;;;;30.63;17.52;;;;;;;;;;4970317;28;20065;-75
2023/01/25 01:24:05;;;;;;;30.73;18.55;;;;;;;;;;4970221;28;20033;-75
2023/01/25 01:26:32;;;;;;;27.67;17.65;;;;;;;;;;4970232;28;20671;-75
2023/01/25 01:28:59;;;;;;;28.73;17.02;;;;;;;;;;4969886;28;20090;-75
2023/01/25 01:31:26;;;;;;;26.42;17.00;;;;;;;;;;4969940;28;20086;-75
2023/01/25 01:33:54;;;;;;;26.88;16.77;;;;;;;;;;4969173;28;20090;-76
2023/01/25 01:36:23;;;;;;;27.02;17.70;;;;;;;;;;4974973;28;20052;-77
2023/01/25 01:38:50;;;;;;;26.27;16.85;;;;;;;;;;4973165;28;20054;-78
2023/01/25 01:41:17;;;;;;;27.35;16.70;;;;;;;;;;4980240;28;20052;-78
2023/01/25 01:43:44;;;;;;;27.55;17.65;;;;;;;;;;4960902;28;20540;-78
2023/01/25 01:46:12;;;;;;;27.95;16.90;;;;;;;;;;4960993;28;20082;-77
2023/01/25 01:48:51;;;;;;;29.63;18.08;;;;;;;;;;4978927;28;20050;-78
2023/01/25 01:51:18;;;;;;;30.30;17.67;;;;;;;;;;4965262;28;20042;-78
2023/01/25 01:53:52;;;;;;;29.88;16.95;;;;;;;;;;4996695;28;20178;-77
2023/01/25 01:56:23;;;;;;;27.73;17.60;;;;;;;;;;4963936;28;20061;-78
2023/01/25 01:58:50;;;;;;;30.17;17.60;;;;;;;;;;4961651;28;20093;-78
2023/01/25 02:01:16;;;;;;;27.23;17.15;;;;;;;;;;4960613;28;20050;-77
2023/01/25 02:03:43;;;;;;;27.48;17.75;;;;;;;;;;4960674;28;20169;-78
2023/01/25 02:06:16;;;;;;;27.67;17.35;;;;;;;;;;4961168;28;20065;-79
2023/01/25 02:08:42;;;;;;;29.93;16.83;;;;;;;;;;4959943;28;20488;-78
2023/01/25 02:11:09;;;;;;;29.33;17.30;;;;;;;;;;4961171;28;20100;-78
2023/01/25 02:13:37;;;;;;;28.77;17.40;;;;;;;;;;4956792;28;20061;-80
2023/01/25 02:16:04;;;;;;;27.27;17.25;;;;;;;;;;4959491;28;20454;-80
2023/01/25 02:18:30;;;;;;;28.08;17.58;;;;;;;;;;4959147;28;20108;-79
2023/01/25 02:20:57;;;;;;;29.48;16.98;;;;;;;;;;4958822;28;20141;-78
2023/01/25 02:23:33;;;;;;;27.90;16.17;;;;;;;;;;4960390;28;20053;-79
2023/01/25 02:26:01;;;;;;;30.92;17.63;;;;;;;;;;4992827;28;20054;-78
2023/01/25 02:28:42;;;;;;;28.65;16.38;;;;;;;;;;4976851;28;20491;-78
2023/01/25 02:31:09;;;;;;;29.67;17.05;;;;;;;;;;4959969;28;20057;-80
2023/01/25 02:33:36;;;;;;;27.17;16.35;;;;;;;;;;4959572;28;20137;-78
2023/01/25 02:36:06;;;;;;;25.27;15.13;;;;;;;;;;4974489;28;20054;-80
2023/01/25 02:38:34;;;;;;;25.52;15.95;;;;;;;;;;4991548;28;20058;-79
2023/01/25 02:41:04;;;;;;;25.63;15.77;;;;;;;;;;4960083;28;20049;-79
2023/01/25 02:43:32;;;;;;;26.42;16.55;;;;;;;;;;4959470;28;20514;-79
2023/01/25 02:46:11;;;;;;;30.02;17.60;;;;;;;;;;4957805;28;20046;-79
2023/01/25 02:48:38;;;;;;;27.05;15.68;;;;;;;;;;4941403;28;20400;-79
2023/01/25 02:51:08;;;;;;;24.77;15.85;;;;;;;;;;4972017;28;20047;-78
2023/01/25 02:53:35;;;;;;;28.80;17.33;;;;;;;;;;4956156;28;20065;-80
2023/01/25 02:56:02;;;;;;;32.28;17.80;;;;;;;;;;4966523;28;20846;-79
2023/01/25 02:58:30;;;;;;;26.02;15.50;;;;;;;;;;4960861;28;20065;-80
2023/01/25 03:00:57;;;;;;;28.20;16.55;;;;;;;;;;4960887;28;20053;-79
2023/01/25 03:03:24;;;;;;;32.03;16.17;;;;;;;;;;4960926;28;20051;-79
2023/01/25 03:05:51;;;;;;;30.30;16.50;;;;;;;;;;4960063;28;20047;-79
2023/01/25 03:08:18;;;;;;;27.60;15.82;;;;;;;;;;4960331;28;20510;-78
2023/01/25 03:10:44;;;;;;;31.45;16.80;;;;;;;;;;4960168;28;20076;-79
2023/01/25 03:13:11;;;;;;;28.55;17.42;;;;;;;;;;4960089;28;20051;-80
2023/01/25 03:15:38;;;;;;;31.05;17.88;;;;;;;;;;4960720;28;20126;-78
2023/01/25 03:18:05;;;;;;;30.02;16.20;;;;;;;;;;4960158;28;20046;-80
2023/01/25 03:20:32;;;;;;;25.25;15.70;;;;;;;;;;4960895;28;20058;-79
2023/01/25 03:22:58;;;;;;;29.38;16.52;;;;;;;;;;4960384;28;20057;-79
2023/01/25 03:25:25;;;;;;;29.27;15.88;;;;;;;;;;4960765;28;20116;-79
2023/01/25 03:27:53;;;;;;;26.30;16.02;;;;;;;;;;4972488;28;20466;-80
2023/01/25 03:30:19;;;;;;;27.38;15.93;;;;;;;;;;4954334;28;20054;-80
2023/01/25 03:32:46;;;;;;;25.55;17.65;;;;;;;;;;4975548;28;20077;-80
2023/01/25 03:35:13;;;;;;;25.60;15.30;;;;;;;;;;4959557;28;20054;-79
2023/01/25 03:37:40;;;;;;;26.13;15.65;;;;;;;;;;4959427;28;20074;-80
2023/01/25 03:40:08;;;;;;;26.83;15.70;;;;;;;;;;4943168;28;20050;-80
2023/01/25 03:42:34;;;;;;;27.30;14.95;;;;;;;;;;4959422;28;20053;-78
2023/01/25 03:45:01;;;;;;;29.25;15.73;;;;;;;;;;4944456;28;20050;-79
2023/01/25 03:47:28;;;;;;;25.63;15.20;;;;;;;;;;4943912;28;20055;-78
2023/01/25 03:49:55;;;;;;;26.73;15.68;;;;;;;;;;4944398;28;20517;-78
2023/01/25 03:52:23;;;;;;;27.42;15.65;;;;;;;;;;4943446;28;20054;-79
2023/01/25 03:54:50;;;;;;;25.55;16.02;;;;;;;;;;4943970;28;20061;-79
2023/01/25 03:57:16;;;;;;;23.10;13.85;;;;;;;;;;4943032;28;20483;-79
2023/01/25 03:59:43;;;;;;;25.50;15.13;;;;;;;;;;4944252;28;20054;-79
2023/01/25 04:02:11;;;;;;;23.65;14.68;;;;;;;;;;4945716;28;20089;-78
2023/01/25 04:04:38;;;;;;;18.60;11.75;;;;;;;;;;4944518;28;20050;-78
2023/01/25 04:07:05;;;;;;;20.88;12.32;;;;;;;;;;4962150;28;20073;-80
2023/01/25 04:09:31;;;;;;;19.30;11.15;;;;;;;;;;4962592;28;20550;-80
2023/01/25 04:11:58;;;;;;;21.95;13.07;;;;;;;;;;4946959;28;20479;-81
2023/01/25 04:14:25;;;;;;;20.05;12.68;;;;;;;;;;4962326;28;20077;-80
2023/01/25 04:17:09;;;;;;;23.48;15.10;;;;;;;;;;4978425;28;20050;-79
2023/01/25 04:19:36;;;;;;;24.92;15.05;;;;;;;;;;4944550;28;20482;-79
2023/01/25 04:22:03;;;;;;;19.60;11.80;;;;;;;;;;4943745;28;20157;-78
2023/01/25 04:24:30;;;;;;;18.65;11.43;;;;;;;;;;4943978;28;20129;-80
2023/01/25 04:26:56;;;;;;;18.45;11.80;;;;;;;;;;4959099;28;20063;-79
2023/01/25 04:29:23;;;;;;;18.35;11.98;;;;;;;;;;4944648;28;20054;-79
2023/01/25 04:32:05;;;;;;;19.92;11.77;;;;;;;;;;4952373;28;20050;-78
2023/01/25 04:34:32;;;;;;;17.42;10.68;;;;;;;;;;4949180;28;20058;-77
2023/01/25 04:36:59;;;;;;;19.27;12.63;;;;;;;;;;4962762;28;20058;-78
2023/01/25 04:39:26;;;;;;;20.35;12.27;;;;;;;;;;4947661;28;20061;-77
2023/01/25 04:41:52;;;;;;;17.60;11.43;;;;;;;;;;4946899;28;20058;-77
2023/01/25 04:44:19;;;;;;;20.27;12.13;;;;;;;;;;4946855;28;20494;-77
2023/01/25 04:46:47;;;;;;;18.90;10.90;;;;;;;;;;4963127;28;20141;-78
2023/01/25 04:49:14;;;;;;;17.48;11.45;;;;;;;;;;4946818;28;20057;-77
2023/01/25 04:51:40;;;;;;;19.40;11.93;;;;;;;;;;4947249;28;20050;-78
2023/01/25 04:54:07;;;;;;;19.45;10.70;;;;;;;;;;4962205;28;20069;-78
2023/01/25 04:56:34;;;;;;;17.35;11.05;;;;;;;;;;4963071;28;20151;-79
2023/01/25 04:59:01;;;;;;;18.63;11.18;;;;;;;;;;4946429;28;20046;-77
2023/01/25 05:01:27;;;;;;;18.58;11.75;;;;;;;;;;4945344;28;20065;-76
2023/01/25 05:03:54;;;;;;;19.42;11.88;;;;;;;;;;4944326;28;20499;-77
2023/01/25 05:06:21;;;;;;;18.33;11.88;;;;;;;;;;4945680;28;20061;-78
2023/01/25 05:08:47;;;;;;;17.67;12.20;;;;;;;;;;4962472;28;20069;-78
2023/01/25 05:11:14;;;;;;;18.23;11.02;;;;;;;;;;4946080;28;20058;-78
2023/01/25 05:13:41;;;;;;;19.52;10.73;;;;;;;;;;4946265;28;20050;-78
2023/01/25 05:16:07;;;;;;;19.50;11.18;;;;;;;;;;4946067;28;20534;-77
2023/01/25 05:18:35;;;;;;;16.60;10.10;;;;;;;;;;4961682;28;20057;-78
2023/01/25 05:23:59;;;;;;;16.60;10.07;;;;;;;;;;4966590;28;20430;-77
2023/01/25 05:29:11;;;;;;;16.23;9.40;;;;;;;;;;4994256;28;20141;-77
2023/01/25 05:31:38;;;;;;;16.75;10.02;;;;;;;;;;4961767;28;20046;-78
2023/01/25 05:34:05;;;;;;;14.95;9.60;;;;;;;;;;4961539;28;20065;-78
2023/01/25 05:36:32;;;;;;;15.88;9.45;;;;;;;;;;4945559;28;20503;-79
2023/01/25 05:38:58;;;;;;;14.45;9.32;;;;;;;;;;4944466;28;20132;-76
2023/01/25 05:41:25;;;;;;;15.68;9.98;;;;;;;;;;4944343;28;20058;-77
2023/01/25 05:43:52;;;;;;;16.85;10.02;;;;;;;;;;4942361;28;20487;-78
2023/01/25 05:46:18;;;;;;;15.20;9.75;;;;;;;;;;4957039;28;20073;-77
2023/01/25 05:48:47;;;;;;;13.82;9.32;;;;;;;;;;4960387;28;20054;-78
2023/01/25 05:51:13;;;;;;;17.95;10.90;;;;;;;;;;4960083;28;20108;-77
2023/01/25 05:53:40;;;;;;;14.00;8.98;;;;;;;;;;4975598;28;20057;-83
2023/01/25 05:56:09;;;;;;;18.40;10.43;;;;;;;;;;4976026;28;20060;-77
2023/01/25 05:58:37;;;;;;;16.45;9.88;;;;;;;;;;4965518;28;20038;-76
2023/01/25 06:01:05;;;;;;;19.42;11.15;;;;;;;;;;4978775;28;20053;-79
2023/01/25 06:03:33;;;;;;;15.80;10.20;;;;;;;;;;4974565;28;20070;-79
2023/01/25 06:06:01;;;;;;;16.98;10.38;;;;;;;;;;4967355;28;20030;-78
2023/01/25 06:08:30;;;;;;;15.32;9.80;;;;;;;;;;4983691;28;20055;-80
2023/01/25 06:10:57;;;;;;;16.50;10.32;;;;;;;;;;4979275;28;20034;-78
2023/01/25 06:13:24;;;;;;;16.95;9.77;;;;;;;;;;4944688;28;20050;-80
2023/01/25 06:15:54;;;;;;;16.67;9.90;;;;;;;;;;4955952;28;20430;-82
2023/01/25 06:18:23;;;;;;;15.90;9.48;;;;;;;;;;4945593;28;20054;-82
2023/01/25 06:20:50;;;;;;;16.00;10.20;;;;;;;;;;4945789;28;20050;-81
2023/01/25 06:23:17;;;;;;;16.13;10.70;;;;;;;;;;4948466;28;20046;-82
2023/01/25 06:25:44;;;;;;;15.55;9.63;;;;;;;;;;4948901;28;20081;-80
2023/01/25 06:28:10;;;;;;;17.15;10.18;;;;;;;;;;4962707;28;20054;-81
2023/01/25 06:30:38;;;;;;;15.70;10.30;;;;;;;;;;4948314;28;20391;-81
2023/01/25 06:33:05;;;;;;;18.20;10.18;;;;;;;;;;4968681;28;20558;-81
2023/01/25 06:35:32;;;;;;;16.45;11.05;;;;;;;;;;4976591;28;20062;-81
2023/01/25 06:38:00;;;;;;;15.82;10.32;;;;;;;;;;4991791;28;20136;-81
2023/01/25 06:40:27;;;;;;;18.17;10.68;;;;;;;;;;4960233;28;20442;-82
2023/01/25 06:42:55;;;;;;;16.48;10.20;;;;;;;;;;4944979;28;20081;-81
2023/01/25 06:45:22;;;;;;;15.32;10.45;;;;;;;;;;4975770;28;20451;-82
2023/01/25 06:47:48;;;;;;;15.68;9.55;;;;;;;;;;4959525;28;20533;-79
2023/01/25 06:50:15;;;;;;;15.02;10.10;;;;;;;;;;4959636;28;20058;-78
2023/01/25 06:52:42;;;;;;;13.77;9.30;;;;;;;;;;4959553;28;20419;-78
2023/01/25 06:55:12;;;;;;;15.98;10.40;;;;;;;;;;4959065;28;20054;-78
2023/01/25 06:57:39;;;;;;;15.55;10.15;;;;;;;;;;4956048;28;20050;-78
2023/01/25 07:00:07;;;;;;;15.35;9.43;;;;;;;;;;4940503;28;20416;-78
2023/01/25 07:02:35;;;;;;;15.68;9.25;;;;;;;;;;4940155;28;20057;-77
2023/01/25 07:05:02;;;;;;;15.18;9.52;;;;;;;;;;4939769;28;20575;-78
2023/01/25 07:07:29;;;;;;;14.07;8.15;;;;;;;;;;4956266;28;20062;-79
2023/01/25 07:09:57;;;;;;;11.73;8.57;;;;;;;;;;4949077;28;20046;-81
2023/01/25 07:12:24;;;;;;;13.68;8.70;;;;;;;;;;4946563;28;20050;-79
2023/01/25 07:14:51;;;;;;;12.25;8.27;;;;;;;;;;4945784;28;20058;-78
2023/01/25 07:17:18;;;;;;;15.32;8.80;;;;;;;;;;4942460;28;20073;-77
2023/01/25 07:19:44;;;;;;;13.80;8.63;;;;;;;;;;4941260;28;20061;-79
2023/01/25 07:22:11;;;;;;;13.18;9.07;;;;;;;;;;4941064;28;20053;-80
2023/01/25 07:24:38;;;;;;;15.95;8.88;;;;;;;;;;4942112;28;20073;-78
2023/01/25 07:27:05;;;;;;;13.02;8.85;;;;;;;;;;4942854;28;20068;-77
2023/01/25 07:29:32;;;;;;;14.93;9.95;;;;;;;;;;4943314;28;20058;-78
2023/01/25 07:31:58;;;;;;;14.13;9.40;;;;;;;;;;4944540;28;20057;-78
2023/01/25 07:34:27;;;;;;;16.30;8.98;;;;;;;;;;4960833;28;20058;-79
2023/01/25 07:36:54;;;;;;;13.30;9.05;;;;;;;;;;4944911;28;20054;-78
2023/01/25 07:39:21;;;;;;;13.90;9.18;;;;;;;;;;4960521;28;20095;-78
2023/01/25 07:41:47;;;;;;;13.82;9.77;;;;;;;;;;4943452;28;20054;-78
2023/01/25 07:44:14;;;;;;;14.70;9.13;;;;;;;;;;4942745;28;20101;-78
2023/01/25 07:46:41;;;;;;;13.45;9.02;;;;;;;;;;4943667;28;20069;-78
2023/01/25 07:49:08;;;;;;;13.75;9.52;;;;;;;;;;4974595;28;20062;-78
2023/01/25 07:51:34;;;;;;;14.85;10.15;;;;;;;;;;4974009;28;20081;-78
2023/01/25 07:54:03;;;;;;;14.50;9.30;;;;;;;;;;4957067;28;20042;-78
2023/01/25 07:56:32;;;;;;;16.27;9.48;;;;;;;;;;4941324;28;20046;-77
2023/01/25 07:59:01;;;;;;;17.13;10.52;;;;;;;;;;4940276;28;20134;-77
2023/01/25 08:01:29;;;;;;;16.13;10.07;;;;;;;;;;4941995;28;20062;-78
2023/01/25 08:03:56;;;;;;;15.55;9.88;;;;;;;;;;4956781;28;20423;-78
2023/01/25 08:06:26;;;;;;;16.17;9.82;;;;;;;;;;4941420;28;20054;-77
2023/01/25 08:08:54;;;;;;;13.88;9.00;;;;;;;;;;4945938;28;20450;-77
2023/01/25 08:11:25;;;;;;;12.50;8.32;;;;;;;;;;4946579;28;20060;-78
2023/01/25 08:13:52;;;;;;;13.75;8.30;;;;;;;;;;4947810;28;20069;-78
2023/01/25 08:16:21;;;;;;;14.35;8.73;;;;;;;;;;4948995;28;20061;-77
2023/01/25 08:18:49;;;;;;;13.88;9.02;;;;;;;;;;4951649;28;20062;-79
2023/01/25 08:21:16;;;;;;;12.40;7.82;;;;;;;;;;4956733;28;20053;-79
2023/01/25 08:23:43;;;;;;;13.80;8.65;;;;;;;;;;4972858;28;20059;-78
2023/01/25 08:26:13;;;;;;;15.68;9.13;;;;;;;;;;4995666;28;20478;-78
2023/01/25 08:28:40;;;;;;;12.45;8.90;;;;;;;;;;4960348;28;20060;-78
2023/01/25 08:31:17;;;;;;;12.10;7.78;;;;;;;;;;4963056;28;20092;-78
2023/01/25 08:33:45;;;;;;;12.00;7.82;;;;;;;;;;4988554;28;20038;-79
2023/01/25 08:36:13;;;;;;;12.90;8.68;;;;;;;;;;4957411;28;20050;-79
2023/01/25 08:38:41;;;;;;;13.25;8.15;;;;;;;;;;4956103;28;20054;-80
2023/01/25 08:41:16;;;;;;;12.07;8.30;;;;;;;;;;4966947;28;20062;-79
2023/01/25 08:43:43;;;;;;;14.82;8.50;;;;;;;;;;4988693;28;20052;-79
2023/01/25 08:46:12;;;;;;;12.32;8.48;;;;;;;;;;4972979;28;20046;-79
2023/01/25 08:48:39;;;;;;;15.15;9.23;;;;;;;;;;4971379;28;20058;-80
2023/01/25 08:51:14;;;;;;;11.90;8.15;;;;;;;;;;4955307;28;20062;-78
2023/01/25 08:53:42;;;;;;;11.27;8.13;;;;;;;;;;4952476;28;20046;-79
2023/01/25 08:56:11;;;;;;;12.23;9.15;;;;;;;;;;4969387;28;20094;-78
2023/01/25 08:58:43;;;;;;;13.20;8.55;;;;;;;;;;4984065;28;20070;-79
2023/01/25 09:01:12;;;;;;;14.70;9.43;;;;;;;;;;4970465;28;20050;-79
2023/01/25 09:03:41;;;;;;;14.15;9.20;;;;;;;;;;4953601;28;20083;-78
2023/01/25 09:06:09;;;;;;;16.02;9.60;;;;;;;;;;4954613;28;20054;-77
2023/01/25 09:08:39;;;;;;;12.65;8.65;;;;;;;;;;4953449;28;20112;-80
2023/01/25 09:11:15;;;;;;;14.25;9.07;;;;;;;;;;4969484;28;20085;-81
2023/01/25 09:13:42;;;;;;;12.93;8.48;;;;;;;;;;4941325;28;20054;-80
2023/01/25 09:16:13;;;;;;;15.45;10.23;;;;;;;;;;4953752;28;20692;-80
2023/01/25 09:18:42;;;;;;;15.02;9.52;;;;;;;;;;4972873;28;20414;-81
2023/01/25 09:21:12;;;;;;;11.45;8.18;;;;;;;;;;4960233;28;20053;-80
2023/01/25 09:23:39;;;;;;;13.82;9.57;;;;;;;;;;4952650;28;20060;-79
2023/01/25 09:26:17;;;;;;;13.95;8.95;;;;;;;;;;4973029;28;20521;-81
2023/01/25 09:28:49;;;;;;;11.68;8.23;;;;;;;;;;4972757;28;20064;-80
2023/01/25 09:31:17;;;;;;;13.75;8.25;;;;;;;;;;4983575;28;20047;-81
2023/01/25 09:33:49;;;;;;;13.57;9.23;;;;;;;;;;4975916;28;20447;-80
2023/01/25 09:36:16;;;;;;;14.88;9.30;;;;;;;;;;4952530;28;20364;-80
2023/01/25 09:38:43;;;;;;;14.55;9.27;;;;;;;;;;4970730;28;20510;-79
2023/01/25 09:41:29;;;;;;;13.32;8.88;;;;;;;;;;4967375;28;20058;-80
2023/01/25 09:44:03;;;;;;;16.23;9.18;;;;;;;;;;4957189;28;20511;-80
2023/01/25 09:46:56;;;;;;;13.48;9.45;;;;;;;;;;4984540;28;20133;-80
2023/01/25 09:49:43;;;;;;;13.40;8.60;;;;;;;;;;4965180;28;20057;-80
2023/01/25 09:52:28;;;;;;;15.85;10.20;;;;;;;;;;4965006;28;20047;-80
2023/01/25 09:54:55;;;;;;;13.88;8.88;;;;;;;;;;4971989;28;20500;-80
2023/01/25 09:57:32;;;;;;;13.95;8.77;;;;;;;;;;4962574;28;20053;-80
2023/01/25 10:00:01;;;;;;;15.20;9.15;;;;;;;;;;4985216;28;20050;-80
2023/01/25 10:02:29;;;;;;;15.07;9.40;;;;;;;;;;4964596;28;20057;-81
2023/01/25 10:05:02;;;;;;;13.10;8.88;;;;;;;;;;4979931;28;20137;-80
2023/01/25 10:07:53;;;;;;;;;;;;;;;;;;4962603;28;20060;-81
2023/01/25 10:10:33;;;;;;;14.23;9.68;;;;;;;;;;4972109;28;20400;-80
2023/01/25 10:13:01;;;;;;;14.20;9.57;;;;;;;;;;4979466;28;20057;-80
2023/01/25 10:15:33;;;;;;;17.42;10.63;;;;;;;;;;4952370;28;20067;-81
2023/01/25 10:18:26;;;;;;;15.90;10.20;;;;;;;;;;4966544;28;20126;-81
2023/01/25 10:21:23;;;;;;;15.45;9.88;;;;;;;;;;4980229;28;20064;-81
2023/01/25 10:23:53;;;;;;;14.50;9.38;;;;;;;;;;4975412;28;20049;-80
2023/01/25 10:26:29;;;;;;;14.68;9.57;;;;;;;;;;4981742;28;20046;-80
2023/01/25 10:29:09;;;;;;;15.45;10.23;;;;;;;;;;4964172;28;20053;-81
2023/01/25 10:31:49;;;;;;;15.35;10.10;;;;;;;;;;4976999;28;20129;-81
2023/01/25 10:34:21;;;;;;;15.93;10.52;;;;;;;;;;4964888;28;20046;-81
2023/01/25 10:37:01;;;;;;;14.68;9.05;;;;;;;;;;4964297;28;20250;-80
2023/01/25 10:39:28;;;;;;;18.45;12.23;;;;;;;;;;4964436;28;20139;-80
2023/01/25 10:41:59;;;;;;;18.67;12.73;;;;;;;;;;4949192;28;20057;-81
2023/01/25 10:44:27;;;;;;;15.82;11.45;;;;;;;;;;4965960;28;20495;-80
2023/01/25 10:47:13;;;;;;;15.68;11.52;;;;;;;;;;4963189;28;20113;-80
2023/01/25 10:49:47;;;;;;;17.73;10.77;;;;;;;;;;4980298;28;20090;-81
2023/01/25 10:52:21;;;;;;;19.52;12.18;;;;;;;;;;4966861;28;20334;-80
2023/01/25 10:55:15;;;;;;;16.48;10.30;;;;;;;;;;4964403;28;20067;-80
2023/01/25 10:57:43;;;;;;;18.80;11.82;;;;;;;;;;4975832;28;20570;-81
2023/01/25 11:00:35;;;;;;;18.02;10.90;;;;;;;;;;4980815;28;20051;-81
2023/01/25 11:03:02;;;;;;;18.10;11.60;;;;;;;;;;4947139;28;20054;-81
2023/01/25 11:05:32;;;;;;;15.95;10.25;;;;;;;;;;4963023;28;20082;-80
2023/01/25 11:08:41;;;;;;;16.38;11.00;;;;;;;;;;4963566;28;20081;-80
2023/01/25 11:11:25;;;;;;;18.60;11.77;;;;;;;;;;4950455;28;20526;-80
2023/01/25 11:13:55;;;;;;;17.60;11.38;;;;;;;;;;4980959;28;20134;-80
2023/01/25 11:16:35;;;;;;;16.38;11.15;;;;;;;;;;4967777;28;20415;-81
2023/01/25 11:19:02;;;;;;;17.98;11.40;;;;;;;;;;4962588;28;20060;-81
2023/01/25 11:21:31;;;;;;;17.92;10.95;;;;;;;;;;4963870;28;20051;-80
2023/01/25 11:24:08;;;;;;;21.98;12.85;;;;;;;;;;4969039;28;20077;-81
2023/01/25 11:26:36;;;;;;;22.92;14.70;;;;;;;;;;4971773;28;20113;-80
2023/01/25 11:29:20;;;;;;;19.10;12.25;;;;;;;;;;4960332;28;20054;-79
2023/01/25 11:31:52;;;;;;;19.80;12.07;;;;;;;;;;4966953;28;20055;-79
2023/01/25 11:34:27;;;;;;;20.45;12.18;;;;;;;;;;4979592;28;20218;-80
2023/01/25 11:37:08;;;;;;;18.88;11.52;;;;;;;;;;4972521;28;20058;-80
2023/01/25 11:39:35;;;;;;;20.73;12.23;;;;;;;;;;4982222;28;20058;-81
2023/01/25 11:42:23;;;;;;;18.50;13.05;;;;;;;;;;4985616;28;20055;-80
2023/01/25 11:45:24;;;;;;;20.63;13.32;;;;;;;;;;4980915;28;20042;-81
2023/01/25 11:47:53;;;;;;;20.15;12.60;;;;;;;;;;4977546;28;20109;-81
2023/01/25 11:50:33;;;;;;;20.83;12.95;;;;;;;;;;4981262;28;20042;-81
2023/01/25 11:53:15;;;;;;;18.40;11.88;;;;;;;;;;4969892;28;20133;-81
2023/01/25 11:55:53;;;;;;;19.65;11.95;;;;;;;;;;4970348;28;20078;-80
2023/01/25 11:58:35;;;;;;;19.55;12.93;;;;;;;;;;4949680;28;20118;-81
2023/01/25 12:01:36;;;;;;;18.92;11.80;;;;;;;;;;4983759;28;20050;-81
2023/01/25 12:04:45;;;;;;;18.17;12.30;;;;;;;;;;4965911;28;20125;-79
2023/01/25 12:07:13;;;;;;;19.98;11.98;;;;;;;;;;4885751;29;20063;-80
2023/01/25 12:09:49;;;;;;;18.13;11.63;;;;;;;;;;4946867;28;20057;-80
2023/01/25 12:12:28;;;;;;;19.00;11.75;;;;;;;;;;4980604;28;20062;-80
2023/01/25 12:15:18;;;;;;;18.45;12.55;;;;;;;;;;4980947;28;20054;-81
2023/01/25 12:18:08;;;;;;;20.00;12.73;;;;;;;;;;4978683;28;20706;-78
2023/01/25 12:20:53;;;;;;;20.55;13.05;;;;;;;;;;4963624;28;20047;-81
2023/01/25 12:23:31;;;;;;;21.30;12.40;;;;;;;;;;4970770;28;20046;-81
2023/01/25 12:26:26;;;;;;;19.45;12.93;;;;;;;;;;4938888;28;20062;-80
2023/01/25 12:28:55;;;;;;;21.70;14.27;;;;;;;;;;4983768;28;20046;-81
2023/01/25 12:31:34;;;;;;;18.48;12.63;;;;;;;;;;4986727;28;20056;-81
2023/01/25 12:34:02;;;;;;;19.65;12.80;;;;;;;;;;4997377;28;20046;-80
2023/01/25 12:36:39;;;;;;;19.60;12.65;;;;;;;;;;4965262;28;20125;-81
2023/01/25 12:39:11;;;;;;;20.13;13.55;;;;;;;;;;4986588;28;20085;-80
2023/01/25 12:41:43;;;;;;;22.00;13.27;;;;;;;;;;4959015;28;20510;-81
2023/01/25 12:44:26;;;;;;;22.75;12.75;;;;;;;;;;4984029;28;20057;-81
2023/01/25 12:47:14;;;;;;;23.58;12.75;;;;;;;;;;4961820;28;20058;-79
2023/01/25 12:49:48;;;;;;;22.90;12.85;;;;;;;;;;4998689;28;20100;-81
2023/01/25 12:52:29;;;;;;;20.98;12.55;;;;;;;;;;4974846;28;20466;-80
2023/01/25 12:55:00;;;;;;;21.25;13.15;;;;;;;;;;4984825;28;20148;-80
2023/01/25 12:58:01;;;;;;;20.50;12.50;;;;;;;;;;4962642;28;20054;-81
2023/01/25 13:00:39;;;;;;;23.27;13.02;;;;;;;;;;4999541;28;20049;-80
2023/01/25 13:03:21;;;;;;;21.30;13.10;;;;;;;;;;4979056;28;20063;-79
2023/01/25 13:05:52;;;;;;;21.00;12.57;;;;;;;;;;4978847;28;20136;-78
2023/01/25 13:08:49;;;;;;;20.52;13.68;;;;;;;;;;4983655;28;20129;-80
2023/01/25 13:11:43;;;;;;;24.02;15.18;;;;;;;;;;4975407;28;20069;-80
2023/01/25 13:14:16;;;;;;;20.45;13.93;;;;;;;;;;4961540;28;20050;-79
2023/01/25 13:16:48;;;;;;;24.42;15.00;;;;;;;;;;4999468;28;20054;-79
2023/01/25 13:19:30;;;;;;;21.63;13.98;;;;;;;;;;4986580;28;20089;-80
2023/01/25 13:21:58;;;;;;;22.27;14.20;;;;;;;;;;5003231;28;20066;-79
2023/01/25 13:24:34;;;;;;;22.15;14.60;;;;;;;;;;4968758;28;20042;-79
2023/01/25 13:27:10;;;;;;;22.77;15.18;;;;;;;;;;4986198;28;20418;-80
2023/01/25 13:29:49;;;;;;;23.20;14.52;;;;;;;;;;4984689;28;20050;-80
2023/01/25 13:32:23;;;;;;;23.80;14.88;;;;;;;;;;4999988;28;20102;-78
2023/01/25 13:34:53;;;;;;;23.45;14.23;;;;;;;;;;4995600;28;20042;-81
2023/01/25 13:37:22;;;;;;;22.35;14.43;;;;;;;;;;5001557;28;20060;-81
2023/01/25 13:40:03;;;;;;;22.98;14.48;;;;;;;;;;4983581;28;20123;-81
2023/01/25 13:42:33;;;;;;;20.92;14.27;;;;;;;;;;4989427;28;20058;-80
2023/01/25 13:45:17;;;;;;;26.13;15.90;;;;;;;;;;4969329;28;20046;-80
2023/01/25 13:48:00;;;;;;;21.15;13.57;;;;;;;;;;4998323;28;20589;-80
2023/01/25 13:50:38;;;;;;;23.80;14.18;;;;;;;;;;5003552;28;20046;-80
2023/01/25 13:53:23;;;;;;;23.17;14.15;;;;;;;;;;5007336;28;20450;-82
2023/01/25 13:55:52;;;;;;;23.25;14.35;;;;;;;;;;4985485;28;20050;-80
2023/01/25 13:58:21;;;;;;;19.40;12.15;;;;;;;;;;4965541;28;20050;-81
2023/01/25 14:00:52;;;;;;;22.48;14.23;;;;;;;;;;5001823;28;20082;-80
2023/01/25 14:03:28;;;;;;;24.33;15.77;;;;;;;;;;4997229;28;20407;-81
2023/01/25 14:05:57;;;;;;;26.17;15.25;;;;;;;;;;4983019;28;20481;-80
2023/01/25 14:08:24;;;;;;;21.75;13.45;;;;;;;;;;4984806;28;20081;-81
2023/01/25 14:10:51;;;;;;;22.10;14.20;;;;;;;;;;4968137;28;20133;-80
2023/01/25 14:13:19;;;;;;;24.02;15.40;;;;;;;;;;4983781;28;20050;-81
2023/01/25 14:15:54;;;;;;;24.17;15.65;;;;;;;;;;4964114;28;20081;-80
2023/01/25 14:18:26;;;;;;;22.70;14.70;;;;;;;;;;4981963;28;20486;-81
2023/01/25 14:21:13;;;;;;;24.80;16.10;;;;;;;;;;4981572;28;20081;-80
2023/01/25 14:23:40;;;;;;;22.65;14.13;;;;;;;;;;4986825;28;20463;-80
2023/01/25 14:26:21;;;;;;;22.17;14.90;;;;;;;;;;4990124;28;20069;-81
2023/01/25 14:28:53;;;;;;;21.63;14.30;;;;;;;;;;5014364;28;20047;-81
2023/01/25 14:31:35;;;;;;;21.35;15.00;;;;;;;;;;4966636;28;20046;-81
2023/01/25 14:34:03;;;;;;;21.75;14.23;;;;;;;;;;4999359;28;20050;-80
2023/01/25 14:36:33;;;;;;;22.40;14.90;;;;;;;;;;4951170;28;20441;-80
2023/01/25 14:39:00;;;;;;;24.98;15.73;;;;;;;;;;4969033;28;20495;-80
2023/01/25 14:41:41;;;;;;;25.02;15.32;;;;;;;;;;4965781;28;20049;-80
2023/01/25 14:44:21;;;;;;;27.27;16.55;;;;;;;;;;4973594;28;20062;-80
2023/01/25 14:46:48;;;;;;;28.38;17.55;;;;;;;;;;4981753;28;20065;-80
2023/01/25 14:49:25;;;;;;;26.55;16.55;;;;;;;;;;4964515;28;20128;-81